ADDS METAR Data INFO
IDs: Format: Raw Decoded Include TAF

Data at: 0109 UTC 24 Jun 2018

KAFN 240052Z AUTO VRB03KT 4SM BR OVC002 13/12 A2986 RMK AO2 SLP118 T01280122
KAFN 240028Z AUTO 00000KT 3SM BR OVC003 13/12 A2986 RMK AO2 T01280122 $
KAFN 240012Z AUTO VRB03KT 2 1/2SM BR OVC003 13/12 A2987 RMK AO2 CIG 002V007 T01280122 $
KAFN 232352Z AUTO VRB03KT 3SM BR OVC004 13/13 A2987 RMK AO2 CIG 003V008 SLP120 60000 T01280128 10150 20128 58005 $
KAFN 232330Z AUTO 00000KT 5SM BR BKN004 OVC011 13/12 A2987 RMK AO2 T01330122 $
KAFN 232252Z AUTO 00000KT 7SM SCT006 OVC010 13/12 A2988 RMK AO2 SLP123 T01330122 $
KAFN 232237Z AUTO 00000KT 3SM BR BKN004 OVC011 13/13 A2988 RMK AO2 CIG 003V008 T01330128 $
KAFN 232220Z AUTO 02003KT 2SM BR BKN004 OVC010 13/12 A2988 RMK AO2 CIG 003V006 T01280122 $
KAFN 232207Z AUTO VRB03KT 2 1/2SM BR BKN008 OVC012 13/12 A2988 RMK AO2 CIG 004V010 T01330122 $
KAFN 232152Z AUTO 00000KT 5SM BR OVC012 13/12 A2988 RMK AO2 SLP126 T01330117 $
KAFN 232052Z AUTO VRB03KT 10SM OVC013 14/12 A2988 RMK AO2 RAB32E48 SLP125 P0000 60000 T01390117 55010 $
KAFN 232050Z AUTO VRB03KT 10SM OVC013 14/12 A2988 RMK AO2 RAB32E48 P0000 $
KAFN 231952Z AUTO VRB04KT 10SM OVC017 14/12 A2990 RMK AO2 RAB02E31 SLP129 P0000 T01440117 $
KAFN 231852Z AUTO VRB05KT 10SM OVC024 15/11 A2991 RMK AO2 SLP135 T01500111 $
KAFN 231752Z AUTO VRB05KT 10SM FEW014 OVC028 15/13 A2993 RMK AO2 RAB1654E17B24E52 SLP138 P0000 60003 T01500128 10167 20139 58024 $
KAFN 231720Z AUTO VRB03KT 10SM FEW015 OVC029 15/12 A2995 RMK AO2 RAB1654E17 P0000 T01500122 $
KAFN 231652Z AUTO VRB05KT 10SM OVC034 16/12 A2996 RMK AO2 RAE20 SLP148 P0000 T01560117 $
KAFN 231552Z AUTO VRB03KT 10SM -RA SCT044 OVC055 16/13 A2998 RMK AO2 SLP156 P0001 T01560128 $
KAFN 231452Z AUTO 00000KT 3SM -RA OVC050 15/12 A3000 RMK AO2 RAB43 SLP162 P0002 60002 T01500122 55004 $
KAFN 231352Z AUTO VRB04KT 10SM OVC055 16/12 A2999 RMK AO2 SLP159 T01610122 $
KAFN 231252Z AUTO 00000KT 10SM OVC060 16/13 A3000 RMK AO2 SLP161 T01560128 $
KAFN 231152Z AUTO VRB04KT 10SM 14/13 A3001 RMK AO2 SLP165 60005 70005 T01390128 10156 20122 $
KAFN 231052Z AUTO 00000KT 10SM OVC075 13/13 A3002 RMK AO2 SLP169 T01330128
KAFN 230952Z AUTO 00000KT 10SM OVC100 13/13 A3002 RMK AO2 RAE02B20E36 SLP168 P0000 T01280128
KAFN 230852Z AUTO 00000KT 8SM -RA BKN110 13/12 A3003 RMK AO2 RAB0758 SLP171 P0005 60005 T01280122 56009
KAFN 230752Z AUTO 00000KT 10SM BKN120 14/11 A3004 RMK AO2 RAB43E52 SLP174 P0000 T01390106
KAFN 230652Z AUTO 00000KT 10SM CLR 14/11 A3005 RMK AO2 SLP177 T01390106
KAFN 230552Z AUTO 00000KT 10SM CLR 16/09 A3006 RMK AO2 SLP180 T01560094 10211 20156 58005
KAFN 230452Z AUTO 20003KT 10SM CLR 17/11 A3007 RMK AO2 SLP183 T01670106 402610078
KAFN 230352Z AUTO 18005KT 10SM CLR 17/14 A3008 RMK AO2 SLP186 T01670144
KAFN 230252Z AUTO 16004KT 10SM CLR 17/13 A3008 RMK AO2 SLP186 T01670133 51011
KAFN 230152Z AUTO 16003KT 10SM SCT033 18/13 A3007 RMK AO2 SLP184 T01780133
KAFN 230052Z AUTO 16004KT 10SM CLR 19/13 A3005 RMK AO2 SLP178 T01940133
KAFN 222352Z AUTO 16004KT 10SM CLR 21/14 A3004 RMK AO2 SLP176 T02110139 10261 20211 53002
KAFN 222252Z AUTO 16005KT 10SM CLR 23/12 A3003 RMK AO2 SLP173 T02280122
KAFN 222152Z AUTO 17006KT 10SM CLR 24/11 A3003 RMK AO2 SLP172 T02440111
KAFN 222052Z AUTO VRB04KT 10SM CLR 25/11 A3004 RMK AO2 SLP174 T02500111 58005
KAFN 221952Z AUTO 19008KT 10SM CLR 25/10 A3004 RMK AO2 SLP177 T02500100
KAFN 221852Z AUTO 19009KT 10SM CLR 24/09 A3005 RMK AO2 SLP179 T02440094
KAFN 221752Z AUTO VRB03KT 10SM CLR 24/09 A3005 RMK AO2 SLP179 T02390094 10244 20156 58007
KAFN 221652Z AUTO VRB05KT 10SM CLR 23/08 A3006 RMK AO2 SLP182 T02330078
KAFN 221552Z AUTO 21005KT 10SM CLR 22/08 A3007 RMK AO2 SLP187 T02170083
KAFN 221452Z AUTO 00000KT 10SM CLR 21/09 A3007 RMK AO2 SLP188 T02110089 50001
KAFN 221352Z AUTO VRB03KT 10SM CLR 19/07 A3008 RMK AO2 SLP190 T01940072